Time;durP1;ratioP1;P1;durP2;ratioP2;P2;SDS_P1;SDS_P2;PMS_P1;PMS_P2;Temp;Humidity;BMP_temperature;BMP_pressure;BME280_temperature;BME280_humidity;BME280_pressure;Samples;Min_cycle;Max_cycle;Signal;HPM_P1;HPM_P2
2023/01/10 00:02:05;;;;;;;2.73;1.30;;;9.40;99.90;;;;;;5125151;27;20238;-72
2023/01/10 00:04:31;;;;;;;7.60;2.00;;;9.40;99.90;;;;;;5097410;28;20692;-72
2023/01/10 00:06:56;;;;;;;3.53;1.50;;;9.40;99.90;;;;;;5105223;28;20630;-71
2023/01/10 00:09:22;;;;;;;6.93;1.67;;;9.40;99.90;;;;;;5109303;28;20171;-72
2023/01/10 00:14:34;;;;;;;3.33;1.42;;;9.40;99.90;;;;;;5107497;28;20627;-72
2023/01/10 00:17:03;;;;;;;2.97;1.40;;;9.40;99.90;;;;;;5091259;28;20668;-72
2023/01/10 00:19:29;;;;;;;4.00;1.50;;;9.40;99.90;;;;;;5091339;28;20278;-72
2023/01/10 00:21:57;;;;;;;8.30;2.25;;;9.40;99.90;;;;;;5108887;28;20245;-72
2023/01/10 00:24:23;;;;;;;5.35;1.67;;;9.40;99.90;;;;;;5108915;28;20205;-72
2023/01/10 00:26:50;;;;;;;3.40;1.42;;;9.40;99.90;;;;;;5108725;28;20179;-72
2023/01/10 00:29:21;;;;;;;5.68;1.25;;;9.30;99.90;;;;;;5109562;28;20628;-72
2023/01/10 00:31:47;;;;;;;5.65;1.73;;;9.30;99.90;;;;;;5112877;28;20277;-72
2023/01/10 00:34:13;;;;;;;5.30;1.77;;;9.30;99.90;;;;;;5108840;28;20243;-72
2023/01/10 00:36:39;;;;;;;2.63;1.30;;;9.30;99.90;;;;;;5110362;28;20213;-72
2023/01/10 00:39:05;;;;;;;8.80;1.60;;;9.30;99.90;;;;;;5110960;28;20191;-73
2023/01/10 00:44:15;;;;;;;4.28;1.33;;;9.30;99.90;;;;;;5107764;28;20186;-72
2023/01/10 00:46:41;;;;;;;6.93;1.03;;;9.30;99.90;;;;;;5109363;28;20182;-72
2023/01/10 00:49:12;;;;;;;2.53;0.80;;;9.30;99.90;;;;;;5108164;28;20229;-72
2023/01/10 00:51:38;;;;;;;3.55;1.45;;;9.30;99.90;;;;;;5107746;28;20171;-72
2023/01/10 00:54:04;;;;;;;3.40;0.90;;;9.30;99.90;;;;;;5090822;28;20190;-72
2023/01/10 00:56:29;;;;;;;4.60;1.17;;;9.30;99.90;;;;;;5107897;28;20166;-72
2023/01/10 00:58:55;;;;;;;6.53;1.20;;;9.30;99.90;;;;;;5108234;28;20577;-72
2023/01/10 01:01:21;;;;;;;2.83;1.30;;;9.30;99.90;;;;;;5107946;28;20189;-72
2023/01/10 01:03:46;;;;;;;5.10;1.77;;;9.30;99.90;;;;;;5108634;28;20197;-72
2023/01/10 01:06:12;;;;;;;5.00;1.10;;;9.40;99.90;;;;;;5109129;28;20305;-72
2023/01/10 01:08:38;;;;;;;4.77;1.23;;;9.40;99.90;;;;;;5107504;28;20215;-72
2023/01/10 01:11:03;;;;;;;5.10;1.47;;;9.40;99.90;;;;;;5109031;28;20163;-72
2023/01/10 01:13:29;;;;;;;2.57;0.70;;;9.40;99.90;;;;;;5092676;28;20199;-72
2023/01/10 01:15:59;;;;;;;8.63;1.30;;;9.40;99.90;;;;;;5111804;28;20179;-71
2023/01/10 01:18:26;;;;;;;4.03;1.30;;;9.40;99.90;;;;;;5111618;28;20171;-72
2023/01/10 01:20:53;;;;;;;4.95;1.23;;;9.40;99.90;;;;;;5111288;28;20175;-72
2023/01/10 01:23:19;;;;;;;4.25;1.23;;;9.40;99.90;;;;;;5111520;28;20252;-72
2023/01/10 01:25:52;;;;;;;8.60;1.57;;;9.40;99.90;;;;;;5111437;28;20175;-73
2023/01/10 01:28:18;;;;;;;4.50;1.10;;;9.40;99.90;;;;;;5112317;28;20689;-72
2023/01/10 01:30:44;;;;;;;3.60;0.88;;;9.40;99.90;;;;;;5111560;28;20178;-72
2023/01/10 01:33:09;;;;;;;6.10;1.23;;;9.40;99.90;;;;;;5111644;28;20187;-71
2023/01/10 01:35:35;;;;;;;4.20;1.50;;;9.40;99.90;;;;;;5093946;28;20175;-72
2023/01/10 01:38:01;;;;;;;7.13;1.60;;;9.40;99.90;;;;;;5112541;28;20175;-72
2023/01/10 01:40:27;;;;;;;3.60;1.50;;;9.40;99.90;;;;;;5112422;28;20174;-72
2023/01/10 01:42:54;;;;;;;5.45;1.83;;;9.30;99.90;;;;;;5112187;28;20681;-72
2023/01/10 01:45:23;;;;;;;9.98;1.48;;;9.30;99.90;;;;;;5110311;28;20167;-71
2023/01/10 01:47:54;;;;;;;3.95;1.27;;;9.30;99.90;;;;;;5110916;28;20218;-72
2023/01/10 01:50:38;;;;;;;4.03;1.30;;;9.30;99.90;;;;;;5110545;28;20881;-72
2023/01/10 01:53:13;;;;;;;6.57;2.35;;;9.30;99.90;;;;;;5111323;28;20681;-72
2023/01/10 01:55:42;;;;;;;6.63;1.33;;;9.30;99.90;;;;;;5110316;28;20166;-72
2023/01/10 01:58:22;;;;;;;3.72;1.05;;;9.20;99.90;;;;;;5112138;28;20574;-71
2023/01/10 02:00:47;;;;;;;3.95;1.58;;;9.20;99.90;;;;;;5110471;28;20691;-72
2023/01/10 02:03:14;;;;;;;5.90;1.30;;;9.20;99.90;;;;;;5130197;27;20199;-72
2023/01/10 02:05:42;;;;;;;4.32;1.13;;;9.20;99.90;;;;;;5076445;28;20585;-72
2023/01/10 02:08:07;;;;;;;7.10;2.25;;;9.20;99.90;;;;;;5110761;28;20777;-71
2023/01/10 02:10:45;;;;;;;3.83;1.43;;;9.20;99.90;;;;;;5110222;28;20175;-72
2023/01/10 02:13:13;;;;;;;8.48;1.50;;;9.20;99.90;;;;;;5092745;28;20198;-72
2023/01/10 02:15:39;;;;;;;3.95;1.85;;;9.20;99.90;;;;;;5093275;28;20167;-73
2023/01/10 02:18:05;;;;;;;5.73;2.10;;;9.20;99.90;;;;;;5093489;28;20606;-72
2023/01/10 02:20:57;;;;;;;8.45;1.10;;;9.20;99.90;;;;;;5093326;28;20174;-73
2023/01/10 02:23:54;;;;;;;6.50;1.48;;;9.30;99.90;;;;;;5109115;28;20206;-73
2023/01/10 02:26:48;;;;;;;6.38;1.50;;;9.20;99.90;;;;;;5093131;28;20183;-73
2023/01/10 02:29:50;;;;;;;3.58;1.23;;;9.20;99.90;;;;;;5093411;28;20849;-72
2023/01/10 02:32:38;;;;;;;8.80;1.70;;;9.20;99.90;;;;;;5110858;28;20185;-73
2023/01/10 02:35:34;;;;;;;4.75;2.03;;;9.20;99.90;;;;;;5092883;28;20840;-73
2023/01/10 02:38:22;;;;;;;9.32;1.70;;;9.20;99.90;;;;;;5109989;28;20175;-73
2023/01/10 02:40:56;;;;;;;4.10;1.90;;;9.10;99.90;;;;;;5111340;28;20175;-73
2023/01/10 02:43:30;;;;;;;5.97;2.85;;;9.10;99.90;;;;;;5092044;28;20193;-73
2023/01/10 02:46:01;;;;;;;4.95;1.45;;;9.10;99.90;;;;;;5111225;28;20186;-74
2023/01/10 02:48:27;;;;;;;4.00;1.40;;;9.10;99.90;;;;;;5092459;28;20280;-73
2023/01/10 02:51:07;;;;;;;3.17;1.15;;;9.10;99.90;;;;;;5109856;28;20167;-73
2023/01/10 02:53:40;;;;;;;2.47;1.00;;;9.10;99.90;;;;;;5092115;28;20199;-74
2023/01/10 02:56:37;;;;;;;4.22;1.30;;;9.10;99.90;;;;;;5075877;28;20591;-73
2023/01/10 02:59:17;;;;;;;4.63;0.90;;;9.10;99.90;;;;;;5109305;28;20266;-73
2023/01/10 03:02:05;;;;;;;4.22;1.20;;;9.10;99.90;;;;;;5109239;28;20186;-73
2023/01/10 03:04:55;;;;;;;4.65;1.48;;;9.10;99.90;;;;;;5091688;28;20281;-73
2023/01/10 03:08:02;;;;;;;7.30;1.65;;;9.10;99.90;;;;;;5109491;28;20207;-73
2023/01/10 03:10:31;;;;;;;7.35;1.30;;;9.10;99.90;;;;;;5082364;28;20183;-72
2023/01/10 03:13:04;;;;;;;5.60;1.35;;;9.10;99.90;;;;;;5110015;28;20666;-72
2023/01/10 03:15:35;;;;;;;2.30;1.00;;;9.10;99.90;;;;;;5110850;28;20212;-72
2023/01/10 03:18:05;;;;;;;3.88;1.00;;;9.10;99.90;;;;;;5092301;28;20177;-72
2023/01/10 03:20:36;;;;;;;3.85;1.13;;;9.10;99.90;;;;;;5092017;28;20171;-72
2023/01/10 03:23:05;;;;;;;4.25;1.00;;;9.10;99.90;;;;;;5091846;28;20199;-72
2023/01/10 03:25:34;;;;;;;3.70;1.67;;;9.10;99.90;;;;;;5110299;28;20171;-72
2023/01/10 03:28:09;;;;;;;7.95;1.40;;;9.00;99.90;;;;;;5109086;28;20265;-73
2023/01/10 03:30:48;;;;;;;5.22;1.20;;;9.00;99.90;;;;;;5091702;28;20212;-72
2023/01/10 03:33:18;;;;;;;3.40;1.02;;;8.90;99.90;;;;;;5109478;28;20183;-72
2023/01/10 03:36:15;;;;;;;6.00;1.65;;;8.90;99.90;;;;;;5090954;28;20167;-72
2023/01/10 03:39:18;;;;;;;5.93;1.20;;;8.80;99.90;;;;;;5091830;28;20175;-72
2023/01/10 03:41:56;;;;;;;6.40;1.20;;;8.80;99.90;;;;;;5078043;28;20238;-72
2023/01/10 03:44:45;;;;;;;3.85;1.10;;;8.80;99.90;;;;;;5109528;28;20547;-73
2023/01/10 03:47:11;;;;;;;5.15;1.20;;;8.80;99.90;;;;;;5108806;28;20202;-73
2023/01/10 03:49:40;;;;;;;5.93;1.20;;;8.80;99.90;;;;;;5110057;28;20223;-72
2023/01/10 03:52:08;;;;;;;7.53;1.75;;;8.90;99.90;;;;;;5091444;28;20269;-73
2023/01/10 03:54:34;;;;;;;10.77;1.90;;;8.90;99.90;;;;;;5091333;28;20191;-73
2023/01/10 03:57:00;;;;;;;8.00;2.10;;;8.90;99.90;;;;;;5091543;28;20197;-73
2023/01/10 03:59:28;;;;;;;3.63;1.70;;;8.90;99.90;;;;;;5108536;28;20565;-73
2023/01/10 04:01:54;;;;;;;3.10;1.17;;;8.90;99.90;;;;;;5107949;28;20167;-74
2023/01/10 04:04:20;;;;;;;4.20;1.40;;;9.00;99.90;;;;;;5109364;28;20597;-73
2023/01/10 04:06:46;;;;;;;3.83;1.40;;;9.00;99.90;;;;;;5091239;28;20174;-73
2023/01/10 04:09:12;;;;;;;6.20;1.47;;;8.90;99.90;;;;;;5108506;28;20668;-73
2023/01/10 04:11:37;;;;;;;6.20;1.40;;;8.90;99.90;;;;;;5109275;28;20181;-73
2023/01/10 04:14:04;;;;;;;4.10;1.00;;;8.90;99.90;;;;;;5109047;28;20588;-72
2023/01/10 04:16:30;;;;;;;6.50;1.13;;;8.80;99.90;;;;;;5109536;28;20702;-73
2023/01/10 04:18:55;;;;;;;4.20;1.10;;;8.80;99.90;;;;;;5109673;28;20216;-73
2023/01/10 04:21:21;;;;;;;4.70;1.30;;;8.80;99.90;;;;;;5109281;28;20202;-73
2023/01/10 04:23:47;;;;;;;4.80;1.27;;;8.80;99.90;;;;;;5107822;28;20562;-73
2023/01/10 04:26:13;;;;;;;9.20;1.33;;;8.80;99.90;;;;;;5091432;28;20639;-73
2023/01/10 04:28:38;;;;;;;6.83;1.40;;;8.70;99.90;;;;;;5109194;28;20236;-73
2023/01/10 04:31:04;;;;;;;8.00;1.20;;;8.70;99.90;;;;;;5090928;28;20163;-73
2023/01/10 04:33:31;;;;;;;4.83;1.50;;;8.70;99.90;;;;;;5107767;28;20198;-72
2023/01/10 04:35:56;;;;;;;3.70;1.20;;;8.70;99.90;;;;;;5108240;28;20197;-73
2023/01/10 04:38:22;;;;;;;3.47;1.07;;;8.60;99.90;;;;;;5109195;28;20178;-73
2023/01/10 04:40:55;;;;;;;7.03;2.03;;;8.60;99.90;;;;;;5109503;28;20225;-72
2023/01/10 04:43:21;;;;;;;5.70;1.60;;;8.60;99.90;;;;;;5090121;28;20206;-72
2023/01/10 04:45:47;;;;;;;6.32;1.30;;;8.60;99.90;;;;;;5091436;28;20183;-72
2023/01/10 04:48:13;;;;;;;5.30;1.40;;;8.60;99.90;;;;;;5094939;28;20255;-72
2023/01/10 04:50:39;;;;;;;5.23;1.67;;;8.60;99.90;;;;;;5113477;28;20167;-72
2023/01/10 04:53:04;;;;;;;7.60;1.40;;;8.60;99.90;;;;;;5093891;28;20652;-72
2023/01/10 04:55:31;;;;;;;9.87;2.10;;;8.60;99.90;;;;;;5112121;28;20171;-72
2023/01/10 04:57:57;;;;;;;11.07;2.00;;;8.60;99.90;;;;;;5112796;28;20581;-71
2023/01/10 05:00:23;;;;;;;6.70;1.30;;;8.60;99.90;;;;;;5077931;28;20175;-72
2023/01/10 05:02:53;;;;;;;7.23;2.37;;;8.70;99.90;;;;;;5112888;28;20190;-72
2023/01/10 05:05:20;;;;;;;5.70;1.77;;;8.70;99.90;;;;;;5111205;28;20258;-72
2023/01/10 05:07:46;;;;;;;5.47;1.80;;;8.70;99.90;;;;;;5113057;28;20207;-73
2023/01/10 05:10:12;;;;;;;8.10;1.60;;;8.70;99.90;;;;;;5077530;28;20175;-72
2023/01/10 05:12:37;;;;;;;6.67;2.20;;;8.70;99.90;;;;;;5111143;28;20182;-73
2023/01/10 05:15:04;;;;;;;6.67;2.23;;;8.70;99.90;;;;;;5093828;28;20174;-72
2023/01/10 05:17:30;;;;;;;4.18;1.60;;;8.70;99.90;;;;;;5094562;28;20175;-72
2023/01/10 05:19:55;;;;;;;5.77;1.70;;;8.70;99.90;;;;;;5112391;28;20173;-72
2023/01/10 05:22:21;;;;;;;5.47;1.20;;;8.70;99.90;;;;;;5112442;28;20502;-72
2023/01/10 05:24:47;;;;;;;7.37;1.27;;;8.80;99.90;;;;;;5112006;28;20183;-71
2023/01/10 05:27:13;;;;;;;5.13;2.70;;;8.80;99.90;;;;;;5077314;28;20748;-72
2023/01/10 05:29:38;;;;;;;8.70;1.30;;;8.80;99.90;;;;;;5112403;28;20726;-72
2023/01/10 05:32:04;;;;;;;7.70;1.60;;;8.80;99.90;;;;;;5112389;28;21096;-73
2023/01/10 05:34:30;;;;;;;6.03;1.60;;;8.80;99.90;;;;;;5112194;28;20183;-72
2023/01/10 05:36:55;;;;;;;5.43;1.70;;;8.80;99.90;;;;;;5112447;28;20235;-73
2023/01/10 05:39:21;;;;;;;8.03;1.83;;;8.80;99.90;;;;;;5111326;28;20224;-73
2023/01/10 05:41:47;;;;;;;7.87;1.70;;;8.80;99.90;;;;;;5105560;22;20217;-73
2023/01/10 05:44:13;;;;;;;5.77;1.77;;;8.80;99.90;;;;;;5101222;28;20195;-73
2023/01/10 05:46:38;;;;;;;6.80;1.80;;;8.70;99.90;;;;;;5060141;28;20164;-73
2023/01/10 05:49:04;;;;;;;7.70;1.70;;;8.70;99.90;;;;;;5078681;28;20623;-73
2023/01/10 05:51:30;;;;;;;9.77;2.37;;;8.70;99.90;;;;;;5082034;28;20195;-74
2023/01/10 05:53:57;;;;;;;9.37;2.07;;;8.60;99.90;;;;;;5078339;28;20790;-74
2023/01/10 05:56:25;;;;;;;7.75;2.03;;;8.60;99.90;;;;;;5073464;28;20573;-73
2023/01/10 05:58:51;;;;;;;14.00;2.35;;;8.60;99.90;;;;;;5057217;28;20209;-74
2023/01/10 06:01:17;;;;;;;8.70;1.40;;;8.60;99.90;;;;;;5091454;28;20758;-74
2023/01/10 06:03:43;;;;;;;5.83;1.60;;;8.50;99.90;;;;;;5073214;28;20197;-73
2023/01/10 06:06:09;;;;;;;5.20;1.57;;;8.40;99.90;;;;;;5073533;28;20171;-76
2023/01/10 06:08:35;;;;;;;5.90;1.20;;;8.40;99.90;;;;;;5091443;28;20621;-73
2023/01/10 06:11:04;;;;;;;5.95;2.22;;;8.30;99.90;;;;;;5073076;28;20696;-73
2023/01/10 06:13:30;;;;;;;4.68;1.25;;;8.30;99.90;;;;;;5072812;28;20307;-73
2023/01/10 06:15:56;;;;;;;7.63;1.60;;;8.20;99.90;;;;;;5073409;28;20179;-73
2023/01/10 06:18:22;;;;;;;4.43;1.30;;;8.10;99.90;;;;;;5072958;28;20176;-73
2023/01/10 06:20:47;;;;;;;6.67;1.03;;;8.10;99.90;;;;;;5090986;28;20550;-73
2023/01/10 06:23:13;;;;;;;5.47;1.23;;;8.10;99.90;;;;;;5089136;28;20218;-74
2023/01/10 06:25:40;;;;;;;6.13;1.20;;;8.10;99.90;;;;;;5100143;28;20581;-73
2023/01/10 06:28:11;;;;;;;5.78;1.33;;;8.10;99.90;;;;;;5114245;27;20209;-73
2023/01/10 06:30:37;;;;;;;8.32;1.58;;;8.10;99.90;;;;;;5113705;27;20630;-74
2023/01/10 06:33:05;;;;;;;4.10;1.60;;;8.20;99.90;;;;;;5131333;27;20262;-74
2023/01/10 06:35:31;;;;;;;8.30;2.75;;;8.20;99.90;;;;;;5113636;27;20181;-74
2023/01/10 06:37:57;;;;;;;6.17;1.40;;;8.20;99.90;;;;;;5131859;27;20246;-74
2023/01/10 06:40:24;;;;;;;5.35;1.50;;;8.20;99.90;;;;;;5131624;27;20170;-73
2023/01/10 06:42:50;;;;;;;6.38;1.65;;;8.20;99.90;;;;;;5131603;27;20189;-72
2023/01/10 06:45:16;;;;;;;8.70;1.77;;;8.20;99.90;;;;;;5112697;27;20174;-73
2023/01/10 06:47:42;;;;;;;5.93;1.77;;;8.10;99.90;;;;;;5131654;27;20209;-73
2023/01/10 06:50:09;;;;;;;8.97;1.50;;;8.10;99.90;;;;;;5112921;27;20523;-74
2023/01/10 06:52:34;;;;;;;8.00;1.50;;;8.10;99.90;;;;;;5112933;27;20190;-75
2023/01/10 06:55:00;;;;;;;8.47;2.00;;;8.10;99.90;;;;;;5130614;27;20162;-74
2023/01/10 06:57:27;;;;;;;5.60;1.47;;;8.10;99.90;;;;;;5131660;27;20565;-74
2023/01/10 06:59:53;;;;;;;8.35;2.10;;;8.10;99.90;;;;;;5131393;27;20170;-74
2023/01/10 07:02:19;;;;;;;9.02;1.85;;;8.10;99.90;;;;;;5113619;27;20198;-74
2023/01/10 07:04:46;;;;;;;6.03;1.77;;;8.10;99.90;;;;;;5091805;28;20557;-74
2023/01/10 07:07:12;;;;;;;5.00;1.92;;;8.00;99.90;;;;;;5101163;27;20591;-75
2023/01/10 07:09:38;;;;;;;5.20;1.83;;;8.00;99.90;;;;;;5112817;27;20158;-76
2023/01/10 07:12:04;;;;;;;10.60;1.50;;;7.90;99.90;;;;;;5112586;27;20186;-75
2023/01/10 07:14:29;;;;;;;10.97;3.63;;;7.90;99.90;;;;;;5112372;27;20177;-75
2023/01/10 07:16:55;;;;;;;6.20;2.17;;;7.90;99.90;;;;;;5112573;27;20165;-75
2023/01/10 07:19:21;;;;;;;6.20;2.13;;;7.80;99.90;;;;;;5112955;27;20166;-75
2023/01/10 07:21:46;;;;;;;8.77;2.27;;;7.70;99.90;;;;;;5130403;27;20190;-75
2023/01/10 07:24:12;;;;;;;5.07;1.57;;;7.70;99.90;;;;;;5109019;28;20611;-75
2023/01/10 07:26:38;;;;;;;4.63;1.50;;;7.70;99.90;;;;;;5100052;28;20175;-74
2023/01/10 07:29:04;;;;;;;7.63;1.50;;;7.60;99.90;;;;;;5083413;28;20628;-75
2023/01/10 07:31:29;;;;;;;6.53;1.70;;;7.60;99.90;;;;;;5074311;28;20187;-75
2023/01/10 07:33:55;;;;;;;6.83;2.40;;;7.60;99.90;;;;;;5109803;28;20167;-75
2023/01/10 07:36:21;;;;;;;7.30;1.37;;;7.70;99.90;;;;;;5110073;28;20660;-76
2023/01/10 07:38:47;;;;;;;5.13;1.57;;;7.80;99.90;;;;;;5091162;28;20210;-75
2023/01/10 07:45:00;;;;;;;8.15;1.50;;;7.90;99.90;;;;;;5110094;28;20194;-76
2023/01/10 07:47:27;;;;;;;8.15;2.25;;;8.10;99.90;;;;;;5109710;28;20190;-75
2023/01/10 07:49:53;;;;;;;9.27;2.97;;;8.20;99.90;;;;;;5110127;28;20170;-76
2023/01/10 07:52:18;;;;;;;4.30;1.90;;;8.20;99.90;;;;;;5090589;28;20183;-75
2023/01/10 07:54:44;;;;;;;11.63;2.63;;;8.30;99.90;;;;;;5108501;28;20630;-75
2023/01/10 07:57:10;;;;;;;6.90;1.93;;;8.40;99.90;;;;;;5120284;27;20200;-75
2023/01/10 07:59:35;;;;;;;7.37;2.40;;;8.40;99.90;;;;;;5111804;27;20171;-75
2023/01/10 08:02:01;;;;;;;7.47;1.90;;;8.40;99.90;;;;;;5111344;27;20221;-75
2023/01/10 08:04:27;;;;;;;6.50;1.97;;;8.40;99.90;;;;;;5111286;27;20221;-75
2023/01/10 08:06:53;;;;;;;10.73;2.17;;;8.40;99.90;;;;;;5129665;27;20170;-75
2023/01/10 08:09:19;;;;;;;5.82;2.25;;;8.40;99.90;;;;;;5111377;28;20206;-76
2023/01/10 08:11:45;;;;;;;11.83;2.90;;;8.30;99.90;;;;;;5111096;27;20239;-75
2023/01/10 08:14:10;;;;;;;9.77;2.37;;;8.30;99.90;;;;;;5113702;27;20174;-78
2023/01/10 08:16:36;;;;;;;12.00;1.97;;;8.30;99.90;;;;;;5130636;27;20170;-78
2023/01/10 08:19:02;;;;;;;13.93;2.87;;;8.30;99.90;;;;;;5129489;28;20166;-80
2023/01/10 08:21:27;;;;;;;3.70;1.53;;;8.30;99.90;;;;;;5090944;28;20198;-79
2023/01/10 08:23:53;;;;;;;8.00;2.00;;;8.20;99.90;;;;;;5107858;28;20689;-79
2023/01/10 08:26:19;;;;;;;9.90;2.60;;;8.20;99.90;;;;;;5112636;28;20174;-79
2023/01/10 08:28:45;;;;;;;5.53;2.50;;;8.20;99.90;;;;;;5130387;28;20632;-81
2023/01/10 08:31:11;;;;;;;11.33;2.27;;;8.20;99.90;;;;;;5110764;28;20182;-80
2023/01/10 08:33:41;;;;;;;10.30;2.47;;;8.20;99.90;;;;;;5111920;28;20534;-81
2023/01/10 08:36:15;;;;;;;8.85;2.40;;;8.20;99.90;;;;;;5129302;28;20159;-81
2023/01/10 08:38:40;;;;;;;10.43;2.70;;;8.30;99.90;;;;;;5101232;28;20248;-80
2023/01/10 08:41:06;;;;;;;10.93;2.87;;;8.20;99.90;;;;;;5070135;28;20587;-80
2023/01/10 08:43:32;;;;;;;7.60;2.20;;;8.30;99.90;;;;;;5088672;28;20190;-80
2023/01/10 08:45:57;;;;;;;9.87;3.70;;;8.30;99.90;;;;;;5088969;28;20224;-80
2023/01/10 08:48:23;;;;;;;14.50;3.50;;;8.30;99.90;;;;;;5088909;28;20288;-80
2023/01/10 08:50:49;;;;;;;11.43;3.67;;;8.40;99.90;;;;;;5088301;28;20893;-79
2023/01/10 08:53:14;;;;;;;6.77;1.97;;;8.40;99.90;;;;;;5070496;28;20175;-79
2023/01/10 08:55:41;;;;;;;12.70;3.43;;;8.40;99.90;;;;;;5089224;28;20258;-79
2023/01/10 08:58:08;;;;;;;9.05;2.30;;;8.40;99.90;;;;;;5073688;28;20172;-79
2023/01/10 09:00:34;;;;;;;10.27;2.53;;;8.50;99.90;;;;;;5098542;28;20170;-79
2023/01/10 09:03:00;;;;;;;8.20;2.17;;;8.50;99.90;;;;;;5087463;28;20547;-79
2023/01/10 09:05:26;;;;;;;11.88;3.08;;;8.60;99.90;;;;;;5102392;28;20174;-80
2023/01/10 09:07:58;;;;;;;12.45;3.00;;;8.60;99.90;;;;;;5121123;28;20190;-80
2023/01/10 09:10:25;;;;;;;6.80;2.03;;;8.60;99.90;;;;;;5111071;27;20178;-79
2023/01/10 09:12:53;;;;;;;7.70;1.88;;;8.70;99.90;;;;;;5110570;28;20253;-79
2023/01/10 09:15:20;;;;;;;13.90;2.67;;;8.70;99.90;;;;;;5129631;28;20185;-79
2023/01/10 09:17:48;;;;;;;13.15;2.83;;;8.80;99.90;;;;;;5129874;28;20180;-80
2023/01/10 09:20:14;;;;;;;8.65;3.28;;;8.80;99.90;;;;;;5130262;28;20166;-79
2023/01/10 09:22:40;;;;;;;9.20;2.08;;;8.90;99.90;;;;;;5129010;27;20190;-81
2023/01/10 09:25:06;;;;;;;6.63;1.67;;;9.00;99.90;;;;;;5111028;28;20697;-81
2023/01/10 09:27:32;;;;;;;10.00;2.40;;;9.00;99.90;;;;;;5111203;28;20202;-81
2023/01/10 09:29:58;;;;;;;5.57;2.10;;;9.10;99.90;;;;;;5129708;28;20211;-80
2023/01/10 09:32:25;;;;;;;6.07;2.17;;;9.10;99.90;;;;;;5110129;28;20230;-80
2023/01/10 09:34:50;;;;;;;8.90;2.17;;;9.20;99.90;;;;;;5123003;27;20171;-80
2023/01/10 09:37:16;;;;;;;10.93;2.73;;;9.20;99.90;;;;;;5114418;27;20793;-81
2023/01/10 09:39:42;;;;;;;9.37;2.97;;;9.30;99.90;;;;;;5099538;28;20171;-80
2023/01/10 09:42:10;;;;;;;12.33;2.30;;;9.30;99.90;;;;;;5092744;28;20677;-80
2023/01/10 09:45:02;;;;;;;11.10;2.85;;;9.40;99.90;;;;;;5112268;28;20171;-79
2023/01/10 09:47:43;;;;;;;11.13;2.30;;;9.50;99.90;;;;;;5111653;28;20278;-80
2023/01/10 09:50:14;;;;;;;12.23;2.80;;;9.60;99.90;;;;;;5112441;28;20162;-79
2023/01/10 09:52:51;;;;;;;17.42;6.03;;;9.70;99.90;;;;;;5092491;28;20195;-79
2023/01/10 09:55:25;;;;;;;10.88;3.20;;;9.80;99.90;;;;;;5088963;27;20182;-78
2023/01/10 09:57:54;;;;;;;8.27;2.47;;;9.90;99.90;;;;;;5114370;27;20178;-79
2023/01/10 10:00:35;;;;;;;8.18;2.40;;;10.00;99.90;;;;;;5105629;27;20174;-78
2023/01/10 10:03:09;;;;;;;13.05;3.40;;;10.10;99.90;;;;;;5117787;27;20170;-80
2023/01/10 10:05:35;;;;;;;7.50;2.70;;;10.10;99.90;;;;;;5096841;28;20166;-81
2023/01/10 10:08:03;;;;;;;13.43;2.35;;;10.20;99.90;;;;;;5104448;27;20205;-80
2023/01/10 10:10:42;;;;;;;9.25;2.97;;;10.30;99.90;;;;;;5117442;27;20242;-80
2023/01/10 10:13:35;;;;;;;9.50;3.10;;;10.30;99.90;;;;;;5107594;27;20177;-80
2023/01/10 10:16:01;;;;;;;13.23;2.70;;;10.40;99.90;;;;;;5114201;27;20198;-80
2023/01/10 10:18:29;;;;;;;7.03;2.30;;;10.50;99.90;;;;;;5132086;27;20181;-80
2023/01/10 10:21:19;;;;;;;10.27;2.17;;;10.60;99.90;;;;;;5089792;28;20183;-80
2023/01/10 10:24:06;;;;;;;5.78;1.50;;;10.60;99.90;;;;;;5100834;27;20179;-81
2023/01/10 10:26:48;;;;;;;10.77;1.92;;;10.70;99.90;;;;;;5106050;27;20177;-79
2023/01/10 10:29:26;;;;;;;8.55;2.45;;;10.80;99.90;;;;;;5093417;28;20199;-78
2023/01/10 10:32:36;;;;;;;15.27;2.53;;;10.90;99.90;;;;;;5110411;28;20224;-80
2023/01/10 10:35:36;;;;;;;13.23;3.60;;;11.00;99.90;;;;;;5031155;28;20715;-81
2023/01/10 10:38:10;;;;;;;11.88;2.50;;;11.10;99.90;;;;;;5048295;28;20215;-79
2023/01/10 10:40:39;;;;;;;8.55;1.60;;;11.30;99.90;;;;;;5082136;28;20182;-78
2023/01/10 10:43:20;;;;;;;6.95;2.47;;;11.40;99.90;;;;;;5074692;28;20178;-79
2023/01/10 10:46:09;;;;;;;7.82;2.13;;;11.50;99.90;;;;;;5087922;28;20580;-79
2023/01/10 10:48:56;;;;;;;10.30;3.05;;;11.60;99.90;;;;;;5097994;27;20202;-80
2023/01/10 10:51:41;;;;;;;6.63;2.55;;;11.70;99.90;;;;;;5123043;27;20202;-79
2023/01/10 10:54:11;;;;;;;9.82;2.28;;;11.80;99.90;;;;;;5129283;27;20264;-79
2023/01/10 10:56:37;;;;;;;6.65;1.73;;;11.90;99.90;;;;;;5112821;27;20185;-79
2023/01/10 10:59:04;;;;;;;9.47;2.00;;;11.90;99.90;;;;;;5131650;27;20170;-81
2023/01/10 11:01:29;;;;;;;8.63;2.10;;;12.00;99.90;;;;;;5130268;27;20957;-80
2023/01/10 11:04:00;;;;;;;8.57;2.73;;;12.10;99.90;;;;;;5095748;27;20171;-79
2023/01/10 11:06:29;;;;;;;9.83;2.70;;;12.10;99.90;;;;;;5112943;27;20178;-80
2023/01/10 11:08:59;;;;;;;8.95;1.92;;;12.20;99.90;;;;;;5095466;27;20642;-80
2023/01/10 11:11:39;;;;;;;10.50;3.47;;;12.20;99.90;;;;;;5111859;27;20186;-80
2023/01/10 11:14:08;;;;;;;8.70;1.70;;;12.20;99.90;;;;;;5120729;27;20687;-79
2023/01/10 11:16:43;;;;;;;10.50;2.47;;;12.30;99.90;;;;;;5123990;27;20231;-78
2023/01/10 11:19:09;;;;;;;11.68;1.88;;;12.30;99.90;;;;;;5102178;28;20281;-81
2023/01/10 11:21:37;;;;;;;12.30;2.10;;;12.40;99.90;;;;;;5084960;28;20286;-80
2023/01/10 11:24:03;;;;;;;10.57;2.00;;;12.40;99.90;;;;;;5093502;27;20178;-80
2023/01/10 11:26:34;;;;;;;12.05;1.58;;;12.40;99.90;;;;;;5099519;27;20185;-81
2023/01/10 11:29:20;;;;;;;7.70;1.40;;;12.40;99.90;;;;;;5108659;28;20543;-80
2023/01/10 11:31:47;;;;;;;7.90;1.88;;;12.40;99.90;;;;;;5093095;28;20209;-80
2023/01/10 11:34:19;;;;;;;7.68;1.67;;;12.40;99.90;;;;;;5093879;28;20179;-80
2023/01/10 11:36:54;;;;;;;7.38;1.52;;;12.50;99.90;;;;;;5111508;28;20167;-80
2023/01/10 11:39:19;;;;;;;15.50;2.17;;;12.40;99.90;;;;;;5093655;28;20179;-80
2023/01/10 11:41:47;;;;;;;8.50;2.40;;;12.50;99.90;;;;;;5092514;28;20255;-80
2023/01/10 11:44:23;;;;;;;11.70;2.47;;;12.50;99.90;;;;;;5111718;28;20163;-79
2023/01/10 11:46:54;;;;;;;9.75;2.17;;;12.40;99.90;;;;;;5111207;28;20170;-78
2023/01/10 11:49:36;;;;;;;4.15;1.20;;;12.50;99.90;;;;;;5093563;28;20524;-79
2023/01/10 11:52:24;;;;;;;8.57;1.92;;;12.40;99.90;;;;;;5092025;28;20194;-79
2023/01/10 11:54:53;;;;;;;5.47;2.40;;;12.40;99.90;;;;;;5111376;28;20217;-79
2023/01/10 11:57:23;;;;;;;5.97;1.98;;;12.50;99.90;;;;;;5110693;28;20185;-79
2023/01/10 12:00:06;;;;;;;10.57;2.10;;;12.50;99.90;;;;;;5093479;28;20171;-80
2023/01/10 12:02:43;;;;;;;10.83;2.50;;;12.50;99.90;;;;;;5092051;28;20240;-78
2023/01/10 12:05:16;;;;;;;6.97;2.22;;;12.50;99.90;;;;;;5115549;28;20567;-78
2023/01/10 12:08:06;;;;;;;11.50;1.92;;;12.60;99.90;;;;;;5110945;28;20210;-78
2023/01/10 12:10:33;;;;;;;9.32;2.10;;;12.50;99.90;;;;;;5092987;28;20517;-78
2023/01/10 12:13:13;;;;;;;10.32;2.03;;;12.50;99.90;;;;;;5091390;28;20198;-78
2023/01/10 12:15:39;;;;;;;5.93;1.77;;;12.50;99.90;;;;;;5111211;28;20227;-78
2023/01/10 12:18:06;;;;;;;7.13;1.60;;;12.60;99.90;;;;;;5111211;28;20179;-78
2023/01/10 12:20:40;;;;;;;7.43;1.80;;;12.60;99.90;;;;;;5110884;28;20580;-78
2023/01/10 12:23:13;;;;;;;5.28;1.25;;;12.60;99.90;;;;;;5088788;28;20585;-78
2023/01/10 12:25:43;;;;;;;10.75;1.60;;;12.60;99.90;;;;;;5106824;28;20178;-78
2023/01/10 12:28:24;;;;;;;10.02;2.35;;;12.60;99.90;;;;;;5122329;28;20186;-79
2023/01/10 12:30:52;;;;;;;7.60;1.50;;;12.60;99.90;;;;;;5115251;28;20202;-79
2023/01/10 12:33:32;;;;;;;7.15;1.80;;;12.60;99.90;;;;;;5111004;28;20777;-79
2023/01/10 12:36:10;;;;;;;5.72;1.50;;;12.50;99.90;;;;;;5092486;28;20219;-78
2023/01/10 12:44:27;;;;;;;9.88;1.38;;;12.40;99.90;;;;;;5114935;28;20551;-80
2023/01/10 12:46:59;;;;;;;6.82;2.00;;;12.30;99.90;;;;;;5104130;28;20194;-80
2023/01/10 12:49:30;;;;;;;10.93;3.22;;;12.20;99.90;;;;;;5113141;28;20212;-80
2023/01/10 12:52:02;;;;;;;9.85;3.33;;;12.20;99.90;;;;;;5111919;28;20186;-81
2023/01/10 12:54:29;;;;;;;3.65;1.30;;;12.20;99.90;;;;;;5113151;28;20262;-80
2023/01/10 12:56:59;;;;;;;4.80;1.38;;;12.10;99.90;;;;;;5096343;28;20179;-79
2023/01/10 12:59:38;;;;;;;6.88;1.80;;;12.10;99.90;;;;;;5092939;28;20189;-79
2023/01/10 13:02:13;;;;;;;8.65;1.70;;;12.00;99.90;;;;;;5092203;28;20324;-82
2023/01/10 13:04:41;;;;;;;6.80;1.65;;;12.00;99.90;;;;;;5115394;28;20547;-81
2023/01/10 13:07:10;;;;;;;10.50;1.50;;;11.90;99.90;;;;;;5111472;28;20535;-81
2023/01/10 13:09:40;;;;;;;8.32;2.58;;;11.90;99.90;;;;;;5119381;27;20210;-81
2023/01/10 13:12:19;;;;;;;5.32;1.85;;;11.90;99.90;;;;;;5125637;27;20235;-80
2023/01/10 13:15:00;;;;;;;9.40;1.48;;;11.90;99.90;;;;;;5107471;28;20199;-80
2023/01/10 13:17:33;;;;;;;6.45;1.83;;;11.80;99.90;;;;;;5110387;27;20182;-80
2023/01/10 13:20:20;;;;;;;9.50;1.50;;;11.80;99.90;;;;;;5101098;28;20186;-80
2023/01/10 13:22:51;;;;;;;6.35;1.48;;;11.70;99.90;;;;;;5100402;28;20580;-75
2023/01/10 13:25:19;;;;;;;5.00;1.40;;;11.70;99.90;;;;;;5095510;28;20175;-76